Time;durP1;ratioP1;P1;durP2;ratioP2;P2;SDS_P1;SDS_P2;PMS_P1;PMS_P2;Temp;Humidity;BMP_temperature;BMP_pressure;BME280_temperature;BME280_humidity;BME280_pressure;Samples;Min_cycle;Max_cycle;Signal;HPM_P1;HPM_P2
2022/01/29 00:00:00;;;;;;;26.70;12.20;;;8.20;99.90;;;;;;5071205;28;39022;-77
2022/01/29 00:02:26;;;;;;;31.03;12.40;;;8.20;99.90;;;;;;5054458;28;38463;-77
2022/01/29 00:04:52;;;;;;;29.10;12.03;;;8.20;99.90;;;;;;5057293;28;37137;-78
2022/01/29 00:07:18;;;;;;;31.67;13.57;;;8.20;99.90;;;;;;5072730;27;38813;-77
2022/01/29 00:09:45;;;;;;;31.17;12.73;;;8.20;99.90;;;;;;5060155;28;37337;-77
2022/01/29 00:12:12;;;;;;;35.70;12.27;;;8.20;99.90;;;;;;5054927;28;39839;-77
2022/01/29 00:14:38;;;;;;;27.03;11.50;;;8.20;99.90;;;;;;5082608;27;36596;-77
2022/01/29 00:17:04;;;;;;;39.40;12.90;;;8.20;99.90;;;;;;5064808;28;39793;-76
2022/01/29 00:19:31;;;;;;;21.20;10.83;;;8.20;99.90;;;;;;5079926;28;38574;-77
2022/01/29 00:22:03;;;;;;;28.23;11.43;;;8.20;99.90;;;;;;5059482;27;39465;-77
2022/01/29 00:24:29;;;;;;;27.73;11.45;;;8.20;99.90;;;;;;5077182;28;47128;-77
2022/01/29 00:26:55;;;;;;;35.73;11.23;;;8.20;99.90;;;;;;5061212;28;39460;-77
2022/01/29 00:29:22;;;;;;;42.57;13.43;;;8.10;99.90;;;;;;5055733;28;40944;-77
2022/01/29 00:31:49;;;;;;;28.07;11.17;;;8.10;99.90;;;;;;5079974;27;37861;-77
2022/01/29 00:34:15;;;;;;;32.97;12.27;;;8.10;99.90;;;;;;5080562;28;37600;-77
2022/01/29 00:36:41;;;;;;;33.83;11.87;;;8.00;99.90;;;;;;5083596;28;39970;-77
2022/01/29 00:39:07;;;;;;;29.50;12.37;;;8.00;99.90;;;;;;5063426;28;38605;-77
2022/01/29 00:41:34;;;;;;;38.27;13.23;;;8.00;99.90;;;;;;5064377;28;38328;-77
2022/01/29 00:44:00;;;;;;;40.43;15.63;;;8.00;99.90;;;;;;5059750;28;37611;-77
2022/01/29 00:46:26;;;;;;;36.37;15.90;;;8.00;99.90;;;;;;5061435;28;39710;-78
2022/01/29 00:48:52;;;;;;;35.37;15.83;;;8.00;99.90;;;;;;5062107;28;39091;-78
2022/01/29 00:51:18;;;;;;;41.73;17.27;;;8.00;99.90;;;;;;5080118;27;38273;-78
2022/01/29 00:53:44;;;;;;;40.57;16.40;;;8.00;99.90;;;;;;5053289;28;37372;-77
2022/01/29 00:56:13;;;;;;;33.40;17.20;;;8.00;99.90;;;;;;5054489;28;40296;-77
2022/01/29 00:58:43;;;;;;;37.37;17.27;;;7.90;99.90;;;;;;5066871;28;38830;-78
2022/01/29 01:01:09;;;;;;;35.80;17.47;;;7.90;99.90;;;;;;5063776;27;37445;-77
2022/01/29 01:03:35;;;;;;;43.80;17.50;;;7.90;99.90;;;;;;5074141;28;37981;-77
2022/01/29 01:06:01;;;;;;;37.97;18.00;;;7.90;99.90;;;;;;5074638;27;39494;-77
2022/01/29 01:08:28;;;;;;;38.83;18.30;;;7.90;99.90;;;;;;5075317;27;38215;-78
2022/01/29 01:10:54;;;;;;;35.47;16.83;;;7.80;99.90;;;;;;5057897;28;37158;-78
2022/01/29 01:13:20;;;;;;;34.10;19.27;;;7.80;99.90;;;;;;5085515;27;37527;-78
2022/01/29 01:15:46;;;;;;;39.23;19.03;;;7.80;99.90;;;;;;5069528;27;38899;-77
2022/01/29 01:18:12;;;;;;;34.63;17.73;;;7.80;99.90;;;;;;5073770;27;38581;-77
2022/01/29 01:20:38;;;;;;;33.57;16.97;;;7.80;99.90;;;;;;5071194;28;38239;-77
2022/01/29 01:23:05;;;;;;;33.67;17.40;;;7.80;99.90;;;;;;5072420;28;37355;-77
2022/01/29 01:25:34;;;;;;;34.00;17.83;;;7.90;99.90;;;;;;5061413;28;40560;-77
2022/01/29 01:28:02;;;;;;;39.00;18.83;;;7.90;99.90;;;;;;5065293;28;37269;-77
2022/01/29 01:30:28;;;;;;;35.97;18.43;;;7.90;99.90;;;;;;5052142;27;48385;-77
2022/01/29 01:32:57;;;;;;;44.50;17.73;;;7.90;99.90;;;;;;5050289;28;37377;-77
2022/01/29 01:35:29;;;;;;;36.37;18.43;;;8.00;99.90;;;;;;5065990;28;38006;-77
2022/01/29 01:38:00;;;;;;;31.97;18.17;;;8.00;99.90;;;;;;5061112;28;38506;-77
2022/01/29 01:40:28;;;;;;;34.73;17.03;;;8.00;99.90;;;;;;5080169;28;47464;-77
2022/01/29 01:42:59;;;;;;;37.13;17.60;;;8.00;99.90;;;;;;5077266;28;37655;-77
2022/01/29 01:45:27;;;;;;;33.67;17.07;;;8.00;99.90;;;;;;5058031;27;38825;-77
2022/01/29 01:47:54;;;;;;;42.97;15.90;;;8.10;99.90;;;;;;5078646;27;40665;-77
2022/01/29 01:50:21;;;;;;;27.50;15.40;;;8.10;99.90;;;;;;5076008;28;37652;-77
2022/01/29 01:52:48;;;;;;;41.73;15.97;;;8.10;99.90;;;;;;5077795;27;37525;-77
2022/01/29 01:55:15;;;;;;;35.80;15.17;;;8.10;99.90;;;;;;5078392;27;38761;-77
2022/01/29 01:57:41;;;;;;;31.13;13.60;;;8.10;99.90;;;;;;5079084;28;38238;-77
2022/01/29 02:00:08;;;;;;;27.53;13.77;;;8.10;99.90;;;;;;5080628;28;36783;-77
2022/01/29 02:02:34;;;;;;;33.77;13.70;;;8.10;99.90;;;;;;5082935;27;37373;-77
2022/01/29 02:05:00;;;;;;;32.33;12.90;;;8.10;99.90;;;;;;5075751;28;38452;-77
2022/01/29 02:07:27;;;;;;;29.97;12.63;;;8.10;99.90;;;;;;5057777;27;38012;-77
2022/01/29 02:09:53;;;;;;;28.07;12.00;;;8.10;99.90;;;;;;5059522;28;37104;-77
2022/01/29 02:12:19;;;;;;;32.47;12.80;;;8.10;99.90;;;;;;5057725;28;37460;-77
2022/01/29 02:14:46;;;;;;;30.77;11.63;;;8.10;99.90;;;;;;5059763;28;40417;-77
2022/01/29 02:17:12;;;;;;;33.17;12.57;;;8.10;99.90;;;;;;5054633;28;38718;-77
2022/01/29 02:19:38;;;;;;;27.67;10.90;;;8.10;99.90;;;;;;5056837;28;38596;-77
2022/01/29 02:22:05;;;;;;;31.77;12.83;;;8.10;99.90;;;;;;5075809;27;38910;-77
2022/01/29 02:24:31;;;;;;;31.73;12.30;;;8.20;99.90;;;;;;5060673;28;39640;-77
2022/01/29 02:26:57;;;;;;;35.13;12.33;;;8.20;99.90;;;;;;5059085;28;38511;-77
2022/01/29 02:29:23;;;;;;;33.60;12.50;;;8.20;99.90;;;;;;5056837;28;38533;-77
2022/01/29 02:31:55;;;;;;;29.50;11.93;;;8.20;99.90;;;;;;5074893;27;39089;-77
2022/01/29 02:34:21;;;;;;;46.03;12.37;;;8.20;99.90;;;;;;5080092;28;38763;-77
2022/01/29 02:36:48;;;;;;;28.97;12.23;;;8.20;99.90;;;;;;5082859;27;38412;-77
2022/01/29 02:39:19;;;;;;;36.13;12.13;;;8.20;99.90;;;;;;5082363;28;38126;-77
2022/01/29 02:41:46;;;;;;;42.70;14.53;;;8.30;99.90;;;;;;5059000;28;38766;-77
2022/01/29 02:44:17;;;;;;;40.57;12.00;;;8.30;99.90;;;;;;5059103;28;39870;-77
2022/01/29 02:49:33;;;;;;;30.20;12.05;;;8.30;99.90;;;;;;5081111;28;38875;-77
2022/01/29 02:51:59;;;;;;;32.07;11.90;;;8.40;99.90;;;;;;5057058;28;38743;-77
2022/01/29 02:54:26;;;;;;;38.17;12.83;;;8.30;99.90;;;;;;5061895;28;39055;-77
2022/01/29 02:56:53;;;;;;;33.67;12.63;;;8.40;99.90;;;;;;5060140;28;39306;-78
2022/01/29 02:59:19;;;;;;;32.87;11.67;;;8.40;99.90;;;;;;5078447;27;38227;-77
2022/01/29 03:01:45;;;;;;;38.90;12.47;;;8.40;99.90;;;;;;5077983;28;37528;-77
2022/01/29 03:04:11;;;;;;;38.17;14.47;;;8.40;99.90;;;;;;5081008;28;39955;-78
2022/01/29 03:06:38;;;;;;;30.17;11.93;;;8.40;99.90;;;;;;5059296;28;39487;-77
2022/01/29 03:09:05;;;;;;;39.40;14.10;;;8.40;99.90;;;;;;5056171;28;39927;-77
2022/01/29 03:11:33;;;;;;;34.83;12.47;;;8.40;99.90;;;;;;5083498;27;38867;-78
2022/01/29 03:13:59;;;;;;;37.63;13.80;;;8.40;99.90;;;;;;5079406;28;39179;-78
2022/01/29 03:16:25;;;;;;;34.47;12.63;;;8.40;99.90;;;;;;5057905;28;39272;-77
2022/01/29 03:18:51;;;;;;;37.70;13.30;;;8.40;99.90;;;;;;5059773;28;38391;-78
2022/01/29 03:21:17;;;;;;;34.90;13.13;;;8.40;99.90;;;;;;5058005;27;36094;-78
2022/01/29 03:23:43;;;;;;;32.93;12.47;;;8.40;99.90;;;;;;5076419;28;39002;-78
2022/01/29 03:26:09;;;;;;;40.00;12.73;;;8.40;99.90;;;;;;5064636;27;40156;-78
2022/01/29 03:28:36;;;;;;;28.57;12.73;;;8.40;99.90;;;;;;5063999;28;39529;-78
2022/01/29 03:31:02;;;;;;;27.00;12.77;;;8.40;99.90;;;;;;5081737;27;37295;-77
2022/01/29 03:33:29;;;;;;;30.50;13.00;;;8.40;99.90;;;;;;5081316;28;38697;-78
2022/01/29 03:35:55;;;;;;;24.97;10.93;;;8.50;99.90;;;;;;5081890;28;38668;-78
2022/01/29 03:38:22;;;;;;;33.43;12.40;;;8.50;99.90;;;;;;5064241;28;37320;-78
2022/01/29 03:40:50;;;;;;;28.27;9.43;;;8.50;99.90;;;;;;5080500;27;37530;-78
2022/01/29 03:43:25;;;;;;;23.40;10.03;;;8.50;99.90;;;;;;5064819;28;39887;-78
2022/01/29 03:45:51;;;;;;;31.80;9.83;;;8.50;99.90;;;;;;5067465;28;38642;-78
2022/01/29 03:48:17;;;;;;;30.27;9.73;;;8.50;99.90;;;;;;5065381;28;39364;-78
2022/01/29 03:50:43;;;;;;;26.33;9.50;;;8.50;99.90;;;;;;5068725;28;38232;-78
2022/01/29 03:53:09;;;;;;;29.40;10.77;;;8.50;99.90;;;;;;5082753;27;38594;-78
2022/01/29 03:55:35;;;;;;;33.00;10.17;;;8.50;99.90;;;;;;5080499;27;39121;-78
2022/01/29 03:58:01;;;;;;;27.40;9.67;;;8.50;99.90;;;;;;5062439;28;38561;-77
2022/01/29 04:00:28;;;;;;;39.37;10.93;;;8.50;99.90;;;;;;5059425;28;37955;-78
2022/01/29 04:02:54;;;;;;;29.77;9.00;;;8.50;99.90;;;;;;5063648;28;38926;-76
2022/01/29 04:05:20;;;;;;;21.00;8.53;;;8.50;99.90;;;;;;5079957;27;38427;-78
2022/01/29 04:07:46;;;;;;;36.07;8.97;;;8.60;99.90;;;;;;5061002;28;38652;-78
2022/01/29 04:10:12;;;;;;;30.23;11.10;;;8.60;99.90;;;;;;5080400;28;37631;-78
2022/01/29 04:12:45;;;;;;;29.23;7.53;;;8.50;99.90;;;;;;5062587;28;39572;-78
2022/01/29 04:15:11;;;;;;;30.17;7.82;;;8.60;99.90;;;;;;5082317;27;38432;-78
2022/01/29 04:17:37;;;;;;;35.80;10.23;;;8.60;99.90;;;;;;5060113;28;38965;-78
2022/01/29 04:20:04;;;;;;;29.17;8.13;;;8.60;99.90;;;;;;5064093;28;37617;-77
2022/01/29 04:22:30;;;;;;;29.57;7.93;;;8.60;99.90;;;;;;5082781;27;47983;-77
2022/01/29 04:24:56;;;;;;;27.73;9.00;;;8.60;99.90;;;;;;5065903;28;39265;-77
2022/01/29 04:27:32;;;;;;;30.27;8.20;;;8.60;99.90;;;;;;5063789;28;38468;-77
2022/01/29 04:30:01;;;;;;;28.20;7.80;;;8.60;99.90;;;;;;5062038;28;38937;-78
2022/01/29 04:35:12;;;;;;;37.07;8.70;;;8.60;99.90;;;;;;5077277;27;40023;-77
2022/01/29 04:37:38;;;;;;;24.13;8.27;;;8.60;99.90;;;;;;5081716;27;38172;-78
2022/01/29 04:40:05;;;;;;;28.50;8.17;;;8.60;99.90;;;;;;5079416;27;38357;-77
2022/01/29 04:42:31;;;;;;;28.87;8.30;;;8.60;99.90;;;;;;5082967;27;47597;-78
2022/01/29 04:44:57;;;;;;;36.20;8.73;;;8.70;99.90;;;;;;5064936;28;38557;-77
2022/01/29 04:47:23;;;;;;;21.57;7.10;;;8.60;99.90;;;;;;5061156;28;38075;-78
2022/01/29 04:49:49;;;;;;;34.37;7.93;;;8.70;99.90;;;;;;5052231;28;37856;-78
2022/01/29 04:52:15;;;;;;;40.50;8.27;;;8.60;99.90;;;;;;5080225;27;40866;-77
2022/01/29 04:54:42;;;;;;;23.13;6.90;;;8.70;99.90;;;;;;5081382;28;38656;-78
2022/01/29 04:57:08;;;;;;;29.93;6.90;;;8.70;99.90;;;;;;5084096;27;37411;-78
2022/01/29 04:59:34;;;;;;;21.33;6.03;;;8.70;99.90;;;;;;5064769;28;38792;-78
2022/01/29 05:02:00;;;;;;;26.97;7.27;;;8.60;99.90;;;;;;5083636;27;39499;-77
2022/01/29 05:04:26;;;;;;;22.63;7.03;;;8.60;99.90;;;;;;5079010;28;47831;-77
2022/01/29 05:06:52;;;;;;;28.57;7.63;;;8.50;99.90;;;;;;5075857;27;38271;-78
2022/01/29 05:09:18;;;;;;;18.87;7.00;;;8.50;99.90;;;;;;5070791;28;37471;-77
2022/01/29 05:11:48;;;;;;;38.17;8.90;;;8.50;99.90;;;;;;5077760;27;38413;-77
2022/01/29 05:14:28;;;;;;;34.23;8.17;;;8.50;99.90;;;;;;5058040;28;39042;-77
2022/01/29 05:27:39;;;;;;;20.73;7.03;;;8.60;99.90;;;;;;5083481;28;49487;-77
2022/01/29 05:30:06;;;;;;;21.70;6.67;;;8.70;99.90;;;;;;5051283;28;36143;-77
2022/01/29 05:32:32;;;;;;;22.60;6.53;;;8.70;99.90;;;;;;5047912;28;47177;-78
2022/01/29 05:34:58;;;;;;;28.83;7.50;;;8.80;99.90;;;;;;5059866;28;38963;-78
2022/01/29 05:37:24;;;;;;;16.30;6.80;;;8.80;99.90;;;;;;5076623;27;38712;-77
2022/01/29 05:39:50;;;;;;;24.50;6.77;;;8.90;99.90;;;;;;5066863;28;37064;-77
2022/01/29 05:42:17;;;;;;;29.47;7.33;;;8.90;99.90;;;;;;5079953;28;41735;-78
2022/01/29 05:44:43;;;;;;;25.40;6.97;;;8.90;99.90;;;;;;5083549;28;38927;-77
2022/01/29 05:47:09;;;;;;;24.20;6.70;;;9.00;99.90;;;;;;5064133;28;38108;-77
2022/01/29 05:49:35;;;;;;;19.23;6.27;;;9.00;99.90;;;;;;5086831;28;37526;-77
2022/01/29 05:52:01;;;;;;;31.03;8.37;;;9.00;99.90;;;;;;5084364;28;38771;-76
2022/01/29 05:54:28;;;;;;;28.07;7.57;;;9.00;99.90;;;;;;5085879;28;40612;-77
2022/01/29 05:56:54;;;;;;;30.77;7.00;;;9.00;99.90;;;;;;5065748;28;37088;-78
2022/01/29 05:59:20;;;;;;;28.87;6.60;;;9.00;99.90;;;;;;5065125;28;36159;-77
2022/01/29 06:01:46;;;;;;;32.87;6.60;;;9.00;99.90;;;;;;5083532;28;38051;-78
2022/01/29 06:04:12;;;;;;;30.97;6.43;;;9.00;99.90;;;;;;5059851;28;37731;-78
2022/01/29 06:06:38;;;;;;;23.23;6.67;;;9.00;99.90;;;;;;5080278;27;39373;-78
2022/01/29 06:09:05;;;;;;;31.17;6.73;;;9.00;99.90;;;;;;5075402;28;37838;-77
2022/01/29 06:11:36;;;;;;;23.17;6.20;;;9.00;99.90;;;;;;5060315;28;37735;-78
2022/01/29 06:14:03;;;;;;;44.97;6.97;;;9.00;99.90;;;;;;5061448;28;38292;-78
2022/01/29 06:16:30;;;;;;;27.33;6.63;;;9.00;99.90;;;;;;5066366;28;36976;-77
2022/01/29 06:18:56;;;;;;;27.97;6.10;;;9.00;99.90;;;;;;5063647;28;36228;-78
2022/01/29 06:21:22;;;;;;;23.97;5.93;;;9.00;99.90;;;;;;5082292;27;38103;-77
2022/01/29 06:23:48;;;;;;;22.27;5.10;;;9.10;99.90;;;;;;5080797;28;37926;-78
2022/01/29 06:26:16;;;;;;;21.80;6.47;;;9.10;99.90;;;;;;5057892;27;38605;-77
2022/01/29 06:28:43;;;;;;;24.97;6.40;;;9.10;99.90;;;;;;5081649;28;38623;-77
2022/01/29 06:31:09;;;;;;;26.13;5.57;;;9.10;99.90;;;;;;5075556;27;39463;-77
2022/01/29 06:33:35;;;;;;;24.97;5.60;;;9.10;99.90;;;;;;5082535;28;38052;-77
2022/01/29 06:36:02;;;;;;;19.70;5.13;;;9.10;99.90;;;;;;5062582;28;36988;-77
2022/01/29 06:38:28;;;;;;;27.53;6.20;;;9.10;99.90;;;;;;5077873;28;37205;-77
2022/01/29 06:40:54;;;;;;;27.93;5.70;;;9.10;99.90;;;;;;5075906;27;38914;-77
2022/01/29 06:43:20;;;;;;;20.17;5.33;;;9.10;99.90;;;;;;5081868;28;38417;-77
2022/01/29 06:45:47;;;;;;;23.90;5.50;;;9.10;99.90;;;;;;5057811;28;39683;-77
2022/01/29 06:48:17;;;;;;;25.57;4.90;;;9.20;99.90;;;;;;5082952;28;37959;-77
2022/01/29 06:50:43;;;;;;;24.03;5.03;;;9.20;99.90;;;;;;5081200;28;41053;-78
2022/01/29 06:53:09;;;;;;;22.27;5.10;;;9.10;99.90;;;;;;5074684;27;36430;-77
2022/01/29 06:55:35;;;;;;;29.00;6.23;;;9.20;99.90;;;;;;5075149;27;38762;-77
2022/01/29 06:58:02;;;;;;;19.23;5.00;;;9.20;99.90;;;;;;5083577;28;38323;-77
2022/01/29 07:00:29;;;;;;;27.37;5.63;;;9.20;99.90;;;;;;5061840;28;40170;-77
2022/01/29 07:02:55;;;;;;;26.67;5.50;;;9.20;99.90;;;;;;5083606;27;38299;-78
2022/01/29 07:05:21;;;;;;;24.43;6.20;;;9.30;99.90;;;;;;5075338;27;37854;-77
2022/01/29 07:07:47;;;;;;;28.30;6.23;;;9.20;99.90;;;;;;5081989;28;38129;-78
2022/01/29 07:10:13;;;;;;;21.03;5.93;;;9.20;99.90;;;;;;5060528;27;38525;-78
2022/01/29 07:12:40;;;;;;;30.20;6.77;;;9.20;99.90;;;;;;5058438;28;38392;-78
2022/01/29 07:15:08;;;;;;;30.80;6.10;;;9.30;99.90;;;;;;5054468;28;37324;-77
2022/01/29 07:17:35;;;;;;;26.57;5.67;;;9.30;99.90;;;;;;5057288;28;36326;-77
2022/01/29 07:20:02;;;;;;;26.77;6.23;;;9.30;99.90;;;;;;5078287;28;38058;-78
2022/01/29 07:22:28;;;;;;;35.87;6.37;;;9.30;99.90;;;;;;5054483;28;47803;-77
2022/01/29 07:24:55;;;;;;;22.90;6.07;;;9.30;99.90;;;;;;5082511;28;38784;-78
2022/01/29 07:27:21;;;;;;;18.57;5.40;;;9.40;99.90;;;;;;5062122;28;37759;-78
2022/01/29 07:29:47;;;;;;;25.20;6.50;;;9.40;99.90;;;;;;5061699;28;38644;-78
2022/01/29 07:32:13;;;;;;;29.27;8.03;;;9.40;99.90;;;;;;5082097;27;38537;-77
2022/01/29 07:34:39;;;;;;;33.53;7.23;;;9.40;99.90;;;;;;5083586;28;37891;-77
2022/01/29 07:37:05;;;;;;;20.20;6.43;;;9.40;99.90;;;;;;5075578;28;37986;-77
2022/01/29 07:39:32;;;;;;;22.13;5.67;;;9.50;99.90;;;;;;5080808;28;39973;-77
2022/01/29 07:41:59;;;;;;;25.13;5.73;;;9.50;99.90;;;;;;5061609;28;38949;-77
2022/01/29 07:44:25;;;;;;;28.23;5.73;;;9.50;99.90;;;;;;5081036;28;38851;-76
2022/01/29 07:46:51;;;;;;;26.63;5.87;;;9.50;99.90;;;;;;5081572;27;37381;-77
2022/01/29 07:49:18;;;;;;;32.93;6.17;;;9.50;99.90;;;;;;5081478;28;38876;-77
2022/01/29 07:51:44;;;;;;;21.53;5.60;;;9.50;99.90;;;;;;5087918;27;38493;-78
2022/01/29 07:54:10;;;;;;;32.00;6.67;;;9.50;99.90;;;;;;5087718;28;38291;-77
2022/01/29 07:56:36;;;;;;;32.23;6.20;;;9.50;99.90;;;;;;5065198;28;39457;-77
2022/01/29 07:59:03;;;;;;;20.67;6.30;;;9.50;99.90;;;;;;5076640;28;39464;-78
2022/01/29 08:01:30;;;;;;;27.17;6.80;;;9.50;99.90;;;;;;5081029;27;38337;-77
2022/01/29 08:03:56;;;;;;;32.03;7.30;;;9.50;99.90;;;;;;5063376;28;37998;-78
2022/01/29 08:06:22;;;;;;;28.70;6.53;;;9.50;99.90;;;;;;5060211;28;37392;-77
2022/01/29 08:08:52;;;;;;;32.57;8.23;;;9.50;99.90;;;;;;5060682;28;39207;-77
2022/01/29 08:11:19;;;;;;;26.77;7.20;;;9.50;99.90;;;;;;5059930;27;38500;-77
2022/01/29 08:13:51;;;;;;;36.90;7.03;;;9.50;99.90;;;;;;5054282;28;37538;-78
2022/01/29 08:16:17;;;;;;;30.02;5.88;;;9.40;99.90;;;;;;5054529;28;37795;-77
2022/01/29 08:18:45;;;;;;;25.67;5.13;;;9.50;99.90;;;;;;5053284;28;38167;-77
2022/01/29 08:21:13;;;;;;;22.53;4.93;;;9.50;99.90;;;;;;5050015;28;39127;-77
2022/01/29 08:23:39;;;;;;;23.23;5.10;;;9.50;99.90;;;;;;5052491;28;38175;-78
2022/01/29 08:26:06;;;;;;;23.60;4.83;;;9.50;99.90;;;;;;5052855;27;38103;-77
2022/01/29 08:28:32;;;;;;;26.77;5.67;;;9.50;99.90;;;;;;5054955;28;39776;-77
2022/01/29 08:30:58;;;;;;;31.43;6.20;;;9.60;99.90;;;;;;5055957;27;38655;-77
2022/01/29 08:33:24;;;;;;;27.40;5.20;;;9.60;99.90;;;;;;5057775;28;38107;-77
2022/01/29 08:35:50;;;;;;;20.70;5.40;;;9.60;99.90;;;;;;5055556;28;37126;-77
2022/01/29 08:38:16;;;;;;;25.40;5.63;;;9.50;99.90;;;;;;5055824;28;40157;-77
2022/01/29 08:40:43;;;;;;;21.33;5.23;;;9.50;99.90;;;;;;5060176;28;40039;-77
2022/01/29 08:43:09;;;;;;;31.53;5.90;;;9.40;99.90;;;;;;5055578;28;37001;-77
2022/01/29 08:45:35;;;;;;;21.90;4.97;;;9.40;99.90;;;;;;5055703;28;37958;-77
2022/01/29 08:48:02;;;;;;;22.57;4.97;;;9.40;99.90;;;;;;5054175;28;39194;-77
2022/01/29 08:50:28;;;;;;;24.60;4.73;;;9.40;99.90;;;;;;5055053;27;36804;-77
2022/01/29 08:52:54;;;;;;;28.57;5.40;;;9.40;99.90;;;;;;5053483;27;38093;-77
2022/01/29 08:55:20;;;;;;;36.07;5.70;;;9.40;99.90;;;;;;5054543;28;36979;-77
2022/01/29 08:57:46;;;;;;;27.30;4.70;;;9.40;99.90;;;;;;5058963;28;38993;-76
2022/01/29 09:00:13;;;;;;;22.70;3.93;;;9.40;99.90;;;;;;5056443;28;39436;-76
2022/01/29 09:02:39;;;;;;;29.70;4.67;;;9.40;99.90;;;;;;5057482;27;37789;-76
2022/01/29 09:05:10;;;;;;;30.03;5.20;;;9.40;99.90;;;;;;5055606;28;37966;-75
2022/01/29 09:07:36;;;;;;;25.27;4.67;;;9.40;99.90;;;;;;5069219;28;37755;-76
2022/01/29 09:10:03;;;;;;;20.63;3.80;;;9.40;99.90;;;;;;5064141;28;38440;-76
2022/01/29 09:12:30;;;;;;;25.80;4.10;;;9.50;99.90;;;;;;5056286;28;41033;-76
2022/01/29 09:14:56;;;;;;;25.50;4.43;;;9.50;99.90;;;;;;5059309;28;38108;-76
2022/01/29 09:17:22;;;;;;;23.97;5.13;;;9.50;99.90;;;;;;5055703;27;39320;-76
2022/01/29 09:19:48;;;;;;;27.57;4.87;;;9.60;99.90;;;;;;5060034;28;39492;-76
2022/01/29 09:22:14;;;;;;;24.60;4.27;;;9.60;99.90;;;;;;5056907;28;39749;-76
2022/01/29 09:24:40;;;;;;;26.37;4.93;;;9.60;99.90;;;;;;5054015;28;37058;-76
2022/01/29 09:27:06;;;;;;;26.10;4.83;;;9.70;99.90;;;;;;5052141;28;39007;-77
2022/01/29 09:29:32;;;;;;;27.20;4.70;;;9.70;99.90;;;;;;5054944;28;39084;-80
2022/01/29 09:31:58;;;;;;;30.03;3.93;;;9.70;99.90;;;;;;5060163;27;38235;-80
2022/01/29 09:34:24;;;;;;;16.97;3.37;;;9.70;99.90;;;;;;5058637;28;38468;-78
2022/01/29 09:36:50;;;;;;;21.63;3.40;;;9.80;99.90;;;;;;5061804;27;42244;-82
2022/01/29 09:39:17;;;;;;;25.13;4.20;;;9.90;99.90;;;;;;5056134;28;39903;-79
2022/01/29 09:41:45;;;;;;;19.40;3.50;;;10.00;99.90;;;;;;5060999;27;38128;-80
2022/01/29 09:44:12;;;;;;;29.10;4.50;;;10.00;99.90;;;;;;5061364;28;37712;-80
2022/01/29 09:46:40;;;;;;;23.80;3.97;;;10.00;99.90;;;;;;5058026;28;38652;-79
2022/01/29 09:49:07;;;;;;;18.40;3.27;;;10.10;99.90;;;;;;5060668;28;38883;-79
2022/01/29 09:51:36;;;;;;;22.67;4.37;;;10.10;99.90;;;;;;5061083;28;38796;-80
2022/01/29 09:54:02;;;;;;;23.07;4.00;;;10.10;99.90;;;;;;5062020;28;37710;-77
2022/01/29 09:56:30;;;;;;;15.63;3.87;;;10.10;99.90;;;;;;5074333;28;39168;-78
2022/01/29 09:58:56;;;;;;;19.70;3.63;;;10.20;99.90;;;;;;5056830;28;38593;-79
2022/01/29 10:01:23;;;;;;;21.57;3.80;;;10.30;99.90;;;;;;5062324;27;38793;-78
2022/01/29 10:03:59;;;;;;;19.67;3.40;;;10.20;99.90;;;;;;5063525;28;37329;-77
2022/01/29 10:06:26;;;;;;;20.10;3.37;;;10.30;99.90;;;;;;5064145;28;38910;-77
2022/01/29 10:08:52;;;;;;;17.40;3.50;;;10.30;99.90;;;;;;5062535;28;38187;-77
2022/01/29 10:11:21;;;;;;;19.90;3.47;;;10.40;99.90;;;;;;5065448;28;38394;-77
2022/01/29 10:13:47;;;;;;;17.53;3.50;;;10.50;99.90;;;;;;5059455;28;37209;-77
2022/01/29 10:16:13;;;;;;;21.87;3.60;;;10.40;99.90;;;;;;5062713;27;38713;-76
2022/01/29 10:18:41;;;;;;;23.87;3.80;;;10.50;99.90;;;;;;5055833;28;37799;-77
2022/01/29 10:21:08;;;;;;;22.27;3.50;;;10.40;99.90;;;;;;5059091;27;39178;-77
2022/01/29 10:23:34;;;;;;;17.63;3.70;;;10.50;99.90;;;;;;5057276;28;36123;-77
2022/01/29 10:26:01;;;;;;;16.57;3.10;;;10.70;99.90;;;;;;5055000;28;40153;-77
2022/01/29 10:28:28;;;;;;;22.27;3.03;;;10.90;99.90;;;;;;5061286;28;49081;-77
2022/01/29 10:31:02;;;;;;;19.07;4.03;;;11.00;99.90;;;;;;5062027;28;36890;-77
2022/01/29 10:33:30;;;;;;;16.90;3.33;;;11.00;99.90;;;;;;5056652;28;45999;-77
2022/01/29 10:36:09;;;;;;;22.17;3.53;;;11.00;99.90;;;;;;5060083;28;39105;-79
2022/01/29 10:38:41;;;;;;;22.17;4.13;;;10.90;99.90;;;;;;5063089;28;48493;-79
2022/01/29 10:41:26;;;;;;;14.65;3.00;;;10.90;99.90;;;;;;5071037;27;38950;-79
2022/01/29 10:44:15;;;;;;;18.97;3.00;;;11.00;99.90;;;;;;5066755;28;38103;-79
2022/01/29 10:46:42;;;;;;;17.13;2.92;;;11.10;99.90;;;;;;5052468;28;47385;-80
2022/01/29 10:49:18;;;;;;;17.03;2.63;;;11.20;99.90;;;;;;5059483;28;37453;-79
2022/01/29 10:52:12;;;;;;;15.27;2.55;;;11.20;99.90;;;;;;5056730;27;38104;-80
2022/01/29 10:54:40;;;;;;;11.73;1.98;;;11.20;99.90;;;;;;5062056;28;47442;-80
2022/01/29 10:57:11;;;;;;;17.20;2.92;;;11.40;99.90;;;;;;5060839;28;39125;-79
2022/01/29 10:59:53;;;;;;;15.07;2.50;;;11.60;99.90;;;;;;5059637;28;37556;-79
2022/01/29 11:02:21;;;;;;;15.30;2.20;;;11.80;99.90;;;;;;5052123;28;37290;-79
2022/01/29 11:04:48;;;;;;;18.25;3.10;;;11.90;99.90;;;;;;5057161;28;37724;-79
2022/01/29 11:07:18;;;;;;;16.38;2.90;;;12.00;99.90;;;;;;5058603;27;40564;-79
2022/01/29 11:09:47;;;;;;;12.50;2.30;;;11.90;99.90;;;;;;5058757;28;39359;-80
2022/01/29 11:14:59;;;;;;;15.03;3.00;;;11.80;99.90;;;;;;5070674;28;20044;-75
2022/01/29 11:17:26;;;;;;;18.00;2.80;;;11.60;99.90;;;;;;5056313;28;39173;-76
2022/01/29 11:19:52;;;;;;;18.48;2.90;;;11.60;99.90;;;;;;5075149;28;39248;-76
2022/01/29 11:22:35;;;;;;;19.35;2.97;;;11.60;99.90;;;;;;5076898;28;37911;-76
2022/01/29 11:25:05;;;;;;;12.50;2.80;;;11.50;99.90;;;;;;5046080;28;36115;-77
2022/01/29 11:27:33;;;;;;;15.53;3.50;;;11.70;99.90;;;;;;5062379;28;47033;-77
2022/01/29 11:30:09;;;;;;;12.63;2.92;;;11.80;99.90;;;;;;5065987;28;38353;-77
2022/01/29 11:32:42;;;;;;;19.20;3.25;;;11.80;99.90;;;;;;5070124;28;47204;-76
2022/01/29 11:35:13;;;;;;;12.75;2.83;;;11.80;99.90;;;;;;5061767;28;36088;-77
2022/01/29 11:37:53;;;;;;;15.40;3.03;;;11.80;99.90;;;;;;5059869;28;42768;-79
2022/01/29 11:40:27;;;;;;;14.88;3.30;;;11.80;99.90;;;;;;5058678;27;39459;-78
2022/01/29 11:42:58;;;;;;;17.23;2.80;;;11.80;99.90;;;;;;5076986;28;38313;-78
2022/01/29 11:45:44;;;;;;;18.42;3.45;;;12.00;99.90;;;;;;5063813;27;36574;-78
2022/01/29 11:48:20;;;;;;;25.65;3.38;;;12.00;99.90;;;;;;5085382;28;39923;-78
2022/01/29 11:50:47;;;;;;;14.00;4.22;;;12.00;99.90;;;;;;5064875;28;35891;-79
2022/01/29 11:53:17;;;;;;;24.33;3.47;;;11.90;99.90;;;;;;5069936;28;38776;-80
2022/01/29 11:55:48;;;;;;;14.23;2.90;;;11.70;99.90;;;;;;5068943;28;37262;-78
2022/01/29 11:58:29;;;;;;;18.52;3.22;;;11.80;99.90;;;;;;5079667;28;38254;-79
2022/01/29 12:00:58;;;;;;;15.18;3.55;;;11.90;99.90;;;;;;5074066;28;38484;-80
2022/01/29 12:03:34;;;;;;;18.45;4.40;;;12.10;99.90;;;;;;5077519;28;36089;-80
2022/01/29 12:09:04;;;;;;;14.68;3.20;;;11.90;99.90;;;;;;5094786;27;49121;-79
2022/01/29 12:11:41;;;;;;;18.23;3.13;;;11.90;99.90;;;;;;5069596;28;47226;-79
2022/01/29 12:14:13;;;;;;;16.23;3.00;;;11.90;99.90;;;;;;5079986;28;37894;-76
2022/01/29 12:16:56;;;;;;;20.48;3.35;;;11.90;99.90;;;;;;5081346;27;37578;-76
2022/01/29 12:19:39;;;;;;;14.02;2.80;;;12.10;99.90;;;;;;5062250;28;37866;-77
2022/01/29 12:22:16;;;;;;;17.05;2.92;;;12.20;99.90;;;;;;5064844;27;37579;-77
2022/01/29 12:25:00;;;;;;;10.75;2.35;;;12.10;99.90;;;;;;5081995;28;38170;-78
2022/01/29 12:27:57;;;;;;;16.88;2.92;;;12.10;99.90;;;;;;5082611;27;36411;-76
2022/01/29 12:30:27;;;;;;;14.50;3.10;;;12.00;99.90;;;;;;5081362;27;39195;-77
2022/01/29 12:33:04;;;;;;;17.73;3.13;;;11.90;99.90;;;;;;5064534;28;37862;-77
2022/01/29 12:35:43;;;;;;;13.77;2.65;;;12.10;99.90;;;;;;5070504;28;47179;-77
2022/01/29 12:38:12;;;;;;;18.55;3.58;;;12.20;99.90;;;;;;5088536;27;36672;-78
2022/01/29 12:40:40;;;;;;;19.33;3.20;;;12.10;99.90;;;;;;5080957;28;38709;-79
2022/01/29 12:43:29;;;;;;;17.40;3.05;;;11.90;99.90;;;;;;5062709;28;37733;-79
2022/01/29 12:46:11;;;;;;;24.50;4.18;;;11.80;99.90;;;;;;5085935;27;38097;-78
2022/01/29 12:48:39;;;;;;;25.20;5.28;;;11.70;99.90;;;;;;5074032;28;47220;-79
2022/01/29 12:51:07;;;;;;;19.20;3.03;;;11.80;99.90;;;;;;5089564;27;37551;-78
2022/01/29 12:53:34;;;;;;;21.55;3.95;;;11.90;99.90;;;;;;5070504;28;37773;-77
2022/01/29 12:56:09;;;;;;;15.55;2.80;;;11.90;99.90;;;;;;5071651;28;37908;-79
2022/01/29 12:58:40;;;;;;;18.90;3.65;;;12.10;99.90;;;;;;5083287;28;48909;-79
2022/01/29 13:01:08;;;;;;;20.23;3.08;;;12.40;99.90;;;;;;5095081;28;38358;-80
2022/01/29 13:03:35;;;;;;;19.98;4.03;;;12.60;99.90;;;;;;5093161;28;38751;-79
2022/01/29 13:06:05;;;;;;;17.40;2.75;;;12.60;99.90;;;;;;5074183;28;36930;-79